sensor_id;sensor_type;location;lat;lon;timestamp;pressure;altitude;pressure_sealevel;temperature;humidity
61757;BME280;57225;61.460;24.060;2023-04-16T00:00:58;101457.75;;;-1.82;76.85
61757;BME280;57225;61.460;24.060;2023-04-16T00:03:43;101453.44;;;-1.88;77.14
61757;BME280;57225;61.460;24.060;2023-04-16T00:06:27;101455.41;;;-1.93;77.23
61757;BME280;57225;61.460;24.060;2023-04-16T00:09:12;101455.19;;;-1.97;77.21
61757;BME280;57225;61.460;24.060;2023-04-16T00:11:56;101451.34;;;-1.96;77.07
61757;BME280;57225;61.460;24.060;2023-04-16T00:14:41;101448.31;;;-1.94;76.41
61757;BME280;57225;61.460;24.060;2023-04-16T00:17:26;101432.91;;;-2.09;76.76
61757;BME280;57225;61.460;24.060;2023-04-16T00:20:11;101450.28;;;-2.00;77.29
61757;BME280;57225;61.460;24.060;2023-04-16T00:22:55;101440.44;;;-2.01;77.98
61757;BME280;57225;61.460;24.060;2023-04-16T00:25:39;101443.13;;;-1.96;78.03
61757;BME280;57225;61.460;24.060;2023-04-16T00:28:26;101434.22;;;-2.07;77.32
61757;BME280;57225;61.460;24.060;2023-04-16T00:31:10;101440.56;;;-2.11;76.40
61757;BME280;57225;61.460;24.060;2023-04-16T00:33:55;101429.97;;;-2.18;77.26
61757;BME280;57225;61.460;24.060;2023-04-16T00:36:39;101435.47;;;-2.23;77.19
61757;BME280;57225;61.460;24.060;2023-04-16T00:39:23;101438.97;;;-2.17;75.97
61757;BME280;57225;61.460;24.060;2023-04-16T00:42:08;101434.22;;;-2.07;74.00
61757;BME280;57225;61.460;24.060;2023-04-16T00:44:53;101435.63;;;-2.09;74.49
61757;BME280;57225;61.460;24.060;2023-04-16T00:47:37;101430.44;;;-2.11;75.17
61757;BME280;57225;61.460;24.060;2023-04-16T00:50:23;101427.47;;;-2.14;75.18
61757;BME280;57225;61.460;24.060;2023-04-16T00:53:07;101434.50;;;-2.08;73.07
61757;BME280;57225;61.460;24.060;2023-04-16T00:55:52;101428.03;;;-2.17;76.58
61757;BME280;57225;61.460;24.060;2023-04-16T00:58:37;101428.94;;;-2.27;75.92
61757;BME280;57225;61.460;24.060;2023-04-16T01:01:21;101418.09;;;-2.37;78.65
61757;BME280;57225;61.460;24.060;2023-04-16T01:04:06;101421.38;;;-2.35;76.77
61757;BME280;57225;61.460;24.060;2023-04-16T01:06:50;101418.16;;;-2.42;78.34
61757;BME280;57225;61.460;24.060;2023-04-16T01:09:35;101432.09;;;-2.49;77.15
61757;BME280;57225;61.460;24.060;2023-04-16T01:12:19;101432.09;;;-2.49;77.13
61757;BME280;57225;61.460;24.060;2023-04-16T01:15:04;101425.88;;;-2.54;76.36
61757;BME280;57225;61.460;24.060;2023-04-16T01:17:50;101425.38;;;-2.61;77.37
61757;BME280;57225;61.460;24.060;2023-04-16T01:20:35;101422.88;;;-2.58;76.43
61757;BME280;57225;61.460;24.060;2023-04-16T01:23:19;101419.63;;;-2.60;77.06
61757;BME280;57225;61.460;24.060;2023-04-16T01:26:04;101419.38;;;-2.63;78.49
61757;BME280;57225;61.460;24.060;2023-04-16T01:28:49;101417.31;;;-2.81;79.29
61757;BME280;57225;61.460;24.060;2023-04-16T01:31:35;101410.72;;;-2.75;79.08
61757;BME280;57225;61.460;24.060;2023-04-16T01:34:20;101409.06;;;-2.71;78.14
61757;BME280;57225;61.460;24.060;2023-04-16T01:37:04;101398.38;;;-2.63;77.52
61757;BME280;57225;61.460;24.060;2023-04-16T01:39:48;101404.88;;;-2.59;76.62
61757;BME280;57225;61.460;24.060;2023-04-16T01:42:33;101405.59;;;-2.43;75.29
61757;BME280;57225;61.460;24.060;2023-04-16T01:45:17;101412.31;;;-2.30;73.80
61757;BME280;57225;61.460;24.060;2023-04-16T01:48:03;101401.63;;;-2.27;73.41
61757;BME280;57225;61.460;24.060;2023-04-16T01:50:47;101401.59;;;-2.22;72.96
61757;BME280;57225;61.460;24.060;2023-04-16T01:53:32;101403.69;;;-2.14;71.90
61757;BME280;57225;61.460;24.060;2023-04-16T01:56:16;101398.56;;;-2.20;73.68
61757;BME280;57225;61.460;24.060;2023-04-16T01:59:01;101399.09;;;-2.18;72.45
61757;BME280;57225;61.460;24.060;2023-04-16T02:01:45;101390.19;;;-2.29;73.18
61757;BME280;57225;61.460;24.060;2023-04-16T02:04:30;101402.75;;;-2.28;72.64
61757;BME280;57225;61.460;24.060;2023-04-16T02:07:15;101395.66;;;-2.34;72.91
61757;BME280;57225;61.460;24.060;2023-04-16T02:09:59;101394.28;;;-2.31;71.80
61757;BME280;57225;61.460;24.060;2023-04-16T02:12:44;101385.44;;;-2.47;73.75
61757;BME280;57225;61.460;24.060;2023-04-16T02:15:29;101392.44;;;-2.36;72.16
61757;BME280;57225;61.460;24.060;2023-04-16T02:18:13;101390.69;;;-2.22;71.03
61757;BME280;57225;61.460;24.060;2023-04-16T02:20:58;101391.13;;;-2.10;69.74
61757;BME280;57225;61.460;24.060;2023-04-16T02:23:45;101390.31;;;-2.10;69.58
61757;BME280;57225;61.460;24.060;2023-04-16T02:26:31;101389.91;;;-1.98;68.53
61757;BME280;57225;61.460;24.060;2023-04-16T02:29:15;101369.59;;;-2.16;69.02
61757;BME280;57225;61.460;24.060;2023-04-16T02:31:59;101384.56;;;-2.14;69.77
61757;BME280;57225;61.460;24.060;2023-04-16T02:34:44;101384.09;;;-2.21;70.10
61757;BME280;57225;61.460;24.060;2023-04-16T02:37:28;101390.75;;;-2.32;71.29
61757;BME280;57225;61.460;24.060;2023-04-16T02:40:13;101383.16;;;-2.40;71.95
61757;BME280;57225;61.460;24.060;2023-04-16T02:42:58;101388.66;;;-2.45;72.64
61757;BME280;57225;61.460;24.060;2023-04-16T02:45:45;101384.31;;;-2.46;71.54
61757;BME280;57225;61.460;24.060;2023-04-16T02:48:30;101375.03;;;-2.45;70.81
61757;BME280;57225;61.460;24.060;2023-04-16T02:51:14;101388.94;;;-2.41;71.01
61757;BME280;57225;61.460;24.060;2023-04-16T02:53:59;101384.31;;;-2.46;71.17
61757;BME280;57225;61.460;24.060;2023-04-16T02:56:44;101387.56;;;-2.44;71.77
61757;BME280;57225;61.460;24.060;2023-04-16T02:59:29;101385.94;;;-2.45;70.50
61757;BME280;57225;61.460;24.060;2023-04-16T03:02:13;101386.81;;;-2.50;73.10
61757;BME280;57225;61.460;24.060;2023-04-16T03:04:59;101381.63;;;-2.51;72.04
61757;BME280;57225;61.460;24.060;2023-04-16T03:07:43;101383.84;;;-2.53;71.40
61757;BME280;57225;61.460;24.060;2023-04-16T03:10:28;101384.34;;;-2.51;70.47
61757;BME280;57225;61.460;24.060;2023-04-16T03:13:12;101385.38;;;-2.42;70.20
61757;BME280;57225;61.460;24.060;2023-04-16T03:15:57;101379.34;;;-2.39;70.57
61757;BME280;57225;61.460;24.060;2023-04-16T03:18:41;101379.94;;;-2.42;70.69
61757;BME280;57225;61.460;24.060;2023-04-16T03:21:27;101381.56;;;-2.41;70.27
61757;BME280;57225;61.460;24.060;2023-04-16T03:24:11;101371.75;;;-2.42;70.74
61757;BME280;57225;61.460;24.060;2023-04-16T03:26:57;101372.56;;;-2.41;70.84
61757;BME280;57225;61.460;24.060;2023-04-16T03:30:00;101372.22;;;-2.35;69.62
61757;BME280;57225;61.460;24.060;2023-04-16T03:32:45;101375.72;;;-2.29;69.72
61757;BME280;57225;61.460;24.060;2023-04-16T03:35:29;101367.25;;;-2.28;69.58
61757;BME280;57225;61.460;24.060;2023-04-16T03:38:14;101374.00;;;-2.20;69.77
61757;BME280;57225;61.460;24.060;2023-04-16T03:40:58;101375.06;;;-2.16;69.28
61757;BME280;57225;61.460;24.060;2023-04-16T03:43:43;101379.88;;;-2.08;69.47
61757;BME280;57225;61.460;24.060;2023-04-16T03:46:27;101383.69;;;-2.04;68.77
61757;BME280;57225;61.460;24.060;2023-04-16T03:49:12;101376.31;;;-2.04;68.41
61757;BME280;57225;61.460;24.060;2023-04-16T03:51:56;101384.50;;;-2.04;69.42
61757;BME280;57225;61.460;24.060;2023-04-16T03:54:41;101386.34;;;-1.99;68.52
61757;BME280;57225;61.460;24.060;2023-04-16T03:57:25;101379.63;;;-1.83;66.71
61757;BME280;57225;61.460;24.060;2023-04-16T04:00:10;101381.19;;;-1.77;66.49
61757;BME280;57225;61.460;24.060;2023-04-16T04:02:55;101386.38;;;-1.75;66.71
61757;BME280;57225;61.460;24.060;2023-04-16T04:05:40;101384.72;;;-1.71;66.18
61757;BME280;57225;61.460;24.060;2023-04-16T04:08:25;101382.50;;;-1.69;67.29
61757;BME280;57225;61.460;24.060;2023-04-16T04:11:09;101376.63;;;-1.57;66.07
61757;BME280;57225;61.460;24.060;2023-04-16T04:13:53;101377.97;;;-1.55;65.30
61757;BME280;57225;61.460;24.060;2023-04-16T04:16:38;101383.16;;;-1.53;65.98
61757;BME280;57225;61.460;24.060;2023-04-16T04:19:22;101385.47;;;-1.42;65.19
61757;BME280;57225;61.460;24.060;2023-04-16T04:22:07;101381.56;;;-1.36;66.27
61757;BME280;57225;61.460;24.060;2023-04-16T04:24:51;101391.84;;;-1.28;64.73
61757;BME280;57225;61.460;24.060;2023-04-16T04:27:35;101386.03;;;-1.21;63.57
61757;BME280;57225;61.460;24.060;2023-04-16T04:30:20;101376.47;;;-1.24;64.16
61757;BME280;57225;61.460;24.060;2023-04-16T04:33:05;101382.47;;;-1.22;65.38
61757;BME280;57225;61.460;24.060;2023-04-16T04:35:49;101381.88;;;-1.18;65.52
61757;BME280;57225;61.460;24.060;2023-04-16T04:38:33;101380.50;;;-0.97;63.14
61757;BME280;57225;61.460;24.060;2023-04-16T04:41:18;101389.06;;;-0.48;61.60
61757;BME280;57225;61.460;24.060;2023-04-16T04:44:02;101381.94;;;0.16;59.77
61757;BME280;57225;61.460;24.060;2023-04-16T04:46:47;101375.22;;;1.04;56.62
61757;BME280;57225;61.460;24.060;2023-04-16T04:49:32;101386.63;;;2.00;53.74
61757;BME280;57225;61.460;24.060;2023-04-16T04:52:16;101379.69;;;2.82;50.84
61757;BME280;57225;61.460;24.060;2023-04-16T04:55:00;101376.84;;;2.56;51.26
61757;BME280;57225;61.460;24.060;2023-04-16T04:57:45;101380.03;;;2.41;51.12
61757;BME280;57225;61.460;24.060;2023-04-16T05:00:30;101374.81;;;2.31;51.84
61757;BME280;57225;61.460;24.060;2023-04-16T05:03:19;101383.28;;;2.43;51.74
61757;BME280;57225;61.460;24.060;2023-04-16T05:06:05;101394.03;;;2.62;51.47
61757;BME280;57225;61.460;24.060;2023-04-16T05:08:51;101383.88;;;2.79;52.14
61757;BME280;57225;61.460;24.060;2023-04-16T05:11:36;101387.31;;;2.94;50.72
61757;BME280;57225;61.460;24.060;2023-04-16T05:14:21;101372.41;;;2.77;51.06
61757;BME280;57225;61.460;24.060;2023-04-16T05:17:05;101389.88;;;2.81;50.54
61757;BME280;57225;61.460;24.060;2023-04-16T05:19:50;101383.25;;;2.82;51.85
61757;BME280;57225;61.460;24.060;2023-04-16T05:22:35;101381.38;;;3.17;50.29
61757;BME280;57225;61.460;24.060;2023-04-16T05:25:20;101382.97;;;3.01;49.65
61757;BME280;57225;61.460;24.060;2023-04-16T05:28:05;101378.63;;;3.60;50.33
61757;BME280;57225;61.460;24.060;2023-04-16T05:30:50;101376.38;;;4.73;47.12
61757;BME280;57225;61.460;24.060;2023-04-16T05:33:34;101368.75;;;4.99;44.89
61757;BME280;57225;61.460;24.060;2023-04-16T05:36:19;101375.03;;;4.79;44.73
61757;BME280;57225;61.460;24.060;2023-04-16T05:39:03;101370.66;;;4.78;46.25
61757;BME280;57225;61.460;24.060;2023-04-16T05:41:47;101372.53;;;4.57;45.42
61757;BME280;57225;61.460;24.060;2023-04-16T05:44:32;101369.16;;;5.10;45.21
61757;BME280;57225;61.460;24.060;2023-04-16T05:47:16;101361.09;;;4.96;45.44
61757;BME280;57225;61.460;24.060;2023-04-16T05:50:01;101365.22;;;5.32;45.13
61757;BME280;57225;61.460;24.060;2023-04-16T05:52:45;101361.13;;;5.38;44.31
61757;BME280;57225;61.460;24.060;2023-04-16T05:55:30;101361.44;;;4.36;45.90
61757;BME280;57225;61.460;24.060;2023-04-16T05:58:14;101340.19;;;3.64;46.74
61757;BME280;57225;61.460;24.060;2023-04-16T06:00:59;101346.47;;;3.90;48.15
61757;BME280;57225;61.460;24.060;2023-04-16T06:03:44;101343.31;;;3.28;49.00
61757;BME280;57225;61.460;24.060;2023-04-16T06:06:28;101352.69;;;3.44;51.61
61757;BME280;57225;61.460;24.060;2023-04-16T06:09:13;101352.81;;;3.91;50.53
61757;BME280;57225;61.460;24.060;2023-04-16T06:11:58;101357.31;;;4.04;50.15
61757;BME280;57225;61.460;24.060;2023-04-16T06:14:42;101352.50;;;3.75;47.90
61757;BME280;57225;61.460;24.060;2023-04-16T06:17:27;101351.63;;;4.00;48.69
61757;BME280;57225;61.460;24.060;2023-04-16T06:20:12;101357.09;;;4.56;48.82
61757;BME280;57225;61.460;24.060;2023-04-16T06:22:57;101350.53;;;4.69;47.08
61757;BME280;57225;61.460;24.060;2023-04-16T06:48:49;101360.41;;;5.29;44.38
61757;BME280;57225;61.460;24.060;2023-04-16T06:51:34;101364.72;;;5.17;43.10
61757;BME280;57225;61.460;24.060;2023-04-16T06:54:18;101365.13;;;5.49;43.13
61757;BME280;57225;61.460;24.060;2023-04-16T06:57:03;101347.00;;;5.72;42.68
61757;BME280;57225;61.460;24.060;2023-04-16T06:59:48;101363.59;;;5.93;42.25
61757;BME280;57225;61.460;24.060;2023-04-16T07:02:32;101360.63;;;6.10;42.38
61757;BME280;57225;61.460;24.060;2023-04-16T07:05:17;101365.41;;;6.34;40.49
61757;BME280;57225;61.460;24.060;2023-04-16T07:08:01;101364.25;;;6.35;42.11
61757;BME280;57225;61.460;24.060;2023-04-16T07:10:46;101358.16;;;6.54;41.38
61757;BME280;57225;61.460;24.060;2023-04-16T07:13:30;101359.78;;;6.67;40.62
61757;BME280;57225;61.460;24.060;2023-04-16T07:16:16;101355.53;;;6.57;39.63
61757;BME280;57225;61.460;24.060;2023-04-16T07:19:00;101354.47;;;6.74;40.23
61757;BME280;57225;61.460;24.060;2023-04-16T07:21:45;101336.00;;;6.66;39.70
61757;BME280;57225;61.460;24.060;2023-04-16T07:24:29;101359.44;;;6.80;39.14
61757;BME280;57225;61.460;24.060;2023-04-16T07:27:32;101359.88;;;6.70;39.16
61757;BME280;57225;61.460;24.060;2023-04-16T07:30:16;101354.47;;;6.37;40.08
61757;BME280;57225;61.460;24.060;2023-04-16T07:33:04;101349.38;;;6.39;39.56
61757;BME280;57225;61.460;24.060;2023-04-16T07:35:49;101350.19;;;6.64;39.07
61757;BME280;57225;61.460;24.060;2023-04-16T07:38:34;101348.28;;;7.17;40.14
61757;BME280;57225;61.460;24.060;2023-04-16T07:41:18;101354.22;;;6.67;37.96
61757;BME280;57225;61.460;24.060;2023-04-16T07:44:03;101350.41;;;6.71;39.13
61757;BME280;57225;61.460;24.060;2023-04-16T07:46:48;101360.00;;;6.98;37.48
61757;BME280;57225;61.460;24.060;2023-04-16T07:49:32;101341.44;;;6.62;41.07
61757;BME280;57225;61.460;24.060;2023-04-16T07:52:17;101343.72;;;6.24;38.82
61757;BME280;57225;61.460;24.060;2023-04-16T07:55:01;101343.00;;;6.15;38.64
61757;BME280;57225;61.460;24.060;2023-04-16T07:57:46;101343.69;;;6.12;39.37
61757;BME280;57225;61.460;24.060;2023-04-16T08:00:30;101342.75;;;6.07;38.73
61757;BME280;57225;61.460;24.060;2023-04-16T08:03:16;101340.91;;;5.99;39.92
61757;BME280;57225;61.460;24.060;2023-04-16T08:06:00;101339.63;;;6.09;38.51
61757;BME280;57225;61.460;24.060;2023-04-16T08:08:46;101331.38;;;6.33;38.74
61757;BME280;57225;61.460;24.060;2023-04-16T08:11:31;101328.19;;;7.20;38.40
61757;BME280;57225;61.460;24.060;2023-04-16T08:14:15;101335.25;;;8.01;37.50
61757;BME280;57225;61.460;24.060;2023-04-16T08:17:00;101339.50;;;8.42;35.55
61757;BME280;57225;61.460;24.060;2023-04-16T08:19:44;101329.09;;;8.70;35.03
61757;BME280;57225;61.460;24.060;2023-04-16T08:22:29;101318.72;;;8.52;35.51
61757;BME280;57225;61.460;24.060;2023-04-16T08:25:13;101316.88;;;8.91;36.09
61757;BME280;57225;61.460;24.060;2023-04-16T08:27:58;101324.28;;;7.92;36.04
61757;BME280;57225;61.460;24.060;2023-04-16T08:30:43;101329.19;;;8.42;36.85
61757;BME280;57225;61.460;24.060;2023-04-16T08:33:28;101327.03;;;8.67;34.93
61757;BME280;57225;61.460;24.060;2023-04-16T08:36:13;101330.38;;;8.92;34.41
61757;BME280;57225;61.460;24.060;2023-04-16T08:38:57;101316.00;;;9.06;34.75
61757;BME280;57225;61.460;24.060;2023-04-16T08:41:44;101321.72;;;9.13;32.64
61757;BME280;57225;61.460;24.060;2023-04-16T08:44:34;101331.69;;;8.47;33.95
61757;BME280;57225;61.460;24.060;2023-04-16T08:47:21;101327.00;;;8.83;34.42
61757;BME280;57225;61.460;24.060;2023-04-16T08:50:10;101322.03;;;9.27;33.52
61757;BME280;57225;61.460;24.060;2023-04-16T08:53:04;101318.22;;;8.81;34.03
61757;BME280;57225;61.460;24.060;2023-04-16T08:55:52;101325.16;;;9.83;33.94
61757;BME280;57225;61.460;24.060;2023-04-16T08:58:41;101322.09;;;8.29;33.03
61757;BME280;57225;61.460;24.060;2023-04-16T09:01:27;101322.59;;;8.98;33.00
61757;BME280;57225;61.460;24.060;2023-04-16T09:04:12;101318.59;;;9.14;32.67
61757;BME280;57225;61.460;24.060;2023-04-16T09:06:58;101311.06;;;9.15;33.49
61757;BME280;57225;61.460;24.060;2023-04-16T09:09:45;101323.13;;;8.53;34.27
61757;BME280;57225;61.460;24.060;2023-04-16T09:12:31;101322.00;;;8.73;35.19
61757;BME280;57225;61.460;24.060;2023-04-16T09:15:19;101322.25;;;9.57;32.49
61757;BME280;57225;61.460;24.060;2023-04-16T09:18:04;101316.69;;;9.76;32.24
61757;BME280;57225;61.460;24.060;2023-04-16T09:20:49;101320.34;;;8.87;34.27
61757;BME280;57225;61.460;24.060;2023-04-16T09:23:36;101323.91;;;8.37;33.86
61757;BME280;57225;61.460;24.060;2023-04-16T09:26:21;101315.84;;;8.32;33.87
61757;BME280;57225;61.460;24.060;2023-04-16T09:29:06;101322.88;;;9.12;34.44
61757;BME280;57225;61.460;24.060;2023-04-16T09:32:03;101313.16;;;9.02;33.59
61757;BME280;57225;61.460;24.060;2023-04-16T09:34:57;101302.03;;;8.52;32.74
61757;BME280;57225;61.460;24.060;2023-04-16T09:37:42;101301.88;;;9.72;32.76
61757;BME280;57225;61.460;24.060;2023-04-16T09:40:27;101307.91;;;9.55;32.93
61757;BME280;57225;61.460;24.060;2023-04-16T09:43:17;101299.97;;;9.18;33.10
61757;BME280;57225;61.460;24.060;2023-04-16T09:46:03;101297.91;;;8.61;35.49
61757;BME280;57225;61.460;24.060;2023-04-16T09:48:48;101311.19;;;8.52;34.52
61757;BME280;57225;61.460;24.060;2023-04-16T09:51:46;101307.91;;;8.81;33.48
61757;BME280;57225;61.460;24.060;2023-04-16T09:54:32;101300.56;;;9.08;32.28
61757;BME280;57225;61.460;24.060;2023-04-16T09:57:22;101305.19;;;9.39;33.64
61757;BME280;57225;61.460;24.060;2023-04-16T10:00:08;101305.00;;;10.13;32.13
61757;BME280;57225;61.460;24.060;2023-04-16T10:03:05;101300.91;;;10.06;31.35
61757;BME280;57225;61.460;24.060;2023-04-16T10:05:52;101289.91;;;10.59;32.05
61757;BME280;57225;61.460;24.060;2023-04-16T10:08:42;101299.00;;;10.30;31.33
61757;BME280;57225;61.460;24.060;2023-04-16T10:11:26;101278.72;;;9.68;32.75
61757;BME280;57225;61.460;24.060;2023-04-16T10:14:11;101287.81;;;10.07;32.13
61757;BME280;57225;61.460;24.060;2023-04-16T10:16:56;101279.63;;;9.95;31.11
61757;BME280;57225;61.460;24.060;2023-04-16T10:19:41;101276.88;;;10.40;31.68
61757;BME280;57225;61.460;24.060;2023-04-16T10:22:25;101282.31;;;11.46;31.03
61757;BME280;57225;61.460;24.060;2023-04-16T10:25:09;101285.38;;;12.00;30.02
61757;BME280;57225;61.460;24.060;2023-04-16T10:27:55;101287.75;;;12.02;30.17
61757;BME280;57225;61.460;24.060;2023-04-16T10:30:42;101279.50;;;12.16;29.95
61757;BME280;57225;61.460;24.060;2023-04-16T10:33:40;101288.91;;;12.41;29.34
61757;BME280;57225;61.460;24.060;2023-04-16T10:36:24;101285.53;;;12.73;29.65
61757;BME280;57225;61.460;24.060;2023-04-16T10:39:12;101283.13;;;12.68;29.42
61757;BME280;57225;61.460;24.060;2023-04-16T10:42:08;101285.31;;;12.41;29.48
61757;BME280;57225;61.460;24.060;2023-04-16T10:44:53;101266.34;;;12.68;27.87
61757;BME280;57225;61.460;24.060;2023-04-16T10:47:39;101284.03;;;12.86;27.86
61757;BME280;57225;61.460;24.060;2023-04-16T10:50:23;101280.44;;;12.82;28.03
61757;BME280;57225;61.460;24.060;2023-04-16T10:53:25;101284.84;;;11.91;30.94
61757;BME280;57225;61.460;24.060;2023-04-16T10:56:10;101284.22;;;11.72;28.30
61757;BME280;57225;61.460;24.060;2023-04-16T10:58:55;101288.63;;;12.09;31.73
61757;BME280;57225;61.460;24.060;2023-04-16T11:01:45;101282.16;;;13.04;29.40
61757;BME280;57225;61.460;24.060;2023-04-16T11:04:37;101287.22;;;12.84;28.42
61757;BME280;57225;61.460;24.060;2023-04-16T11:07:32;101276.72;;;13.33;28.87
61757;BME280;57225;61.460;24.060;2023-04-16T11:10:18;101288.81;;;13.58;30.19
61757;BME280;57225;61.460;24.060;2023-04-16T11:13:05;101281.56;;;13.39;28.75
61757;BME280;57225;61.460;24.060;2023-04-16T11:15:50;101285.22;;;13.61;28.93
61757;BME280;57225;61.460;24.060;2023-04-16T11:18:34;101281.59;;;13.46;27.53
61757;BME280;57225;61.460;24.060;2023-04-16T11:21:21;101280.56;;;13.10;26.71
61757;BME280;57225;61.460;24.060;2023-04-16T11:24:05;101287.63;;;12.83;27.22
61757;BME280;57225;61.460;24.060;2023-04-16T11:26:52;101268.31;;;12.13;28.68
61757;BME280;57225;61.460;24.060;2023-04-16T11:29:37;101282.16;;;12.46;29.97
61757;BME280;57225;61.460;24.060;2023-04-16T11:32:21;101285.53;;;12.22;27.47
61757;BME280;57225;61.460;24.060;2023-04-16T11:35:14;101280.94;;;11.62;29.60
61757;BME280;57225;61.460;24.060;2023-04-16T11:38:00;101263.28;;;11.21;30.58
61757;BME280;57225;61.460;24.060;2023-04-16T11:40:44;101277.63;;;11.53;29.54
61757;BME280;57225;61.460;24.060;2023-04-16T11:43:32;101279.06;;;12.11;28.35
61757;BME280;57225;61.460;24.060;2023-04-16T11:46:18;101270.22;;;10.75;28.71
61757;BME280;57225;61.460;24.060;2023-04-16T11:49:02;101271.69;;;11.92;31.14
61757;BME280;57225;61.460;24.060;2023-04-16T11:51:47;101277.22;;;12.80;28.71
61757;BME280;57225;61.460;24.060;2023-04-16T11:54:32;101280.56;;;13.10;30.13
61757;BME280;57225;61.460;24.060;2023-04-16T11:57:23;101274.41;;;12.25;27.15
61757;BME280;57225;61.460;24.060;2023-04-16T12:00:08;101273.22;;;11.86;27.22
61757;BME280;57225;61.460;24.060;2023-04-16T12:02:56;101258.56;;;11.96;28.83
61757;BME280;57225;61.460;24.060;2023-04-16T12:05:41;101260.69;;;12.09;27.64
61757;BME280;57225;61.460;24.060;2023-04-16T12:08:29;101269.25;;;11.87;28.68
61757;BME280;57225;61.460;24.060;2023-04-16T12:11:14;101271.91;;;12.13;27.70
61757;BME280;57225;61.460;24.060;2023-04-16T12:14:08;101258.88;;;11.87;29.05
61757;BME280;57225;61.460;24.060;2023-04-16T12:16:53;101261.44;;;13.16;29.48
61757;BME280;57225;61.460;24.060;2023-04-16T12:20:37;101255.47;;;12.56;26.85
61757;BME280;57225;61.460;24.060;2023-04-16T12:22:54;101251.59;;;12.74;26.72
61757;BME280;57225;61.460;24.060;2023-04-16T12:25:41;101246.75;;;13.40;27.39
61757;BME280;57225;61.460;24.060;2023-04-16T12:28:33;101248.06;;;13.92;26.50
61757;BME280;57225;61.460;24.060;2023-04-16T12:31:35;101251.28;;;14.23;26.77
61757;BME280;57225;61.460;24.060;2023-04-16T12:34:20;101242.84;;;13.77;26.24
61757;BME280;57225;61.460;24.060;2023-04-16T12:37:06;101245.69;;;14.16;26.06
61757;BME280;57225;61.460;24.060;2023-04-16T12:39:53;101251.28;;;14.01;26.10
61757;BME280;57225;61.460;24.060;2023-04-16T12:42:37;101247.25;;;13.78;26.08
61757;BME280;57225;61.460;24.060;2023-04-16T12:45:23;101252.06;;;13.81;26.93
61757;BME280;57225;61.460;24.060;2023-04-16T12:48:08;101239.25;;;13.87;28.08
61757;BME280;57225;61.460;24.060;2023-04-16T12:50:53;101242.88;;;12.83;25.87
61757;BME280;57225;61.460;24.060;2023-04-16T12:53:38;101250.44;;;13.76;26.70
61757;BME280;57225;61.460;24.060;2023-04-16T12:56:22;101236.75;;;13.43;27.74
61757;BME280;57225;61.460;24.060;2023-04-16T12:59:07;101247.25;;;13.81;25.09
61757;BME280;57225;61.460;24.060;2023-04-16T13:01:52;101236.84;;;13.71;26.00
61757;BME280;57225;61.460;24.060;2023-04-16T13:04:40;101237.88;;;13.24;25.44
61757;BME280;57225;61.460;24.060;2023-04-16T13:07:26;101238.72;;;13.32;25.47
61757;BME280;57225;61.460;24.060;2023-04-16T13:10:11;101241.28;;;13.90;25.52
61757;BME280;57225;61.460;24.060;2023-04-16T13:12:56;101238.47;;;12.27;25.46
61757;BME280;57225;61.460;24.060;2023-04-16T13:15:40;101218.72;;;11.65;27.02
61757;BME280;57225;61.460;24.060;2023-04-16T13:18:25;101238.16;;;11.92;26.16
61757;BME280;57225;61.460;24.060;2023-04-16T13:21:12;101234.72;;;12.09;26.24
61757;BME280;57225;61.460;24.060;2023-04-16T13:23:58;101232.34;;;11.70;25.54
61757;BME280;57225;61.460;24.060;2023-04-16T13:26:42;101226.28;;;11.28;26.21
61757;BME280;57225;61.460;24.060;2023-04-16T13:29:26;101232.00;;;11.39;26.05
61757;BME280;57225;61.460;24.060;2023-04-16T13:32:11;101222.91;;;11.12;25.66
61757;BME280;57225;61.460;24.060;2023-04-16T13:34:57;101231.59;;;11.07;26.92
61757;BME280;57225;61.460;24.060;2023-04-16T13:37:42;101218.59;;;11.18;26.34
61757;BME280;57225;61.460;24.060;2023-04-16T13:40:27;101214.06;;;11.77;27.21
61757;BME280;57225;61.460;24.060;2023-04-16T13:43:11;101209.94;;;12.04;28.17
61757;BME280;57225;61.460;24.060;2023-04-16T13:45:57;101213.47;;;11.97;25.70
61757;BME280;57225;61.460;24.060;2023-04-16T13:48:42;101220.44;;;11.74;25.96
61757;BME280;57225;61.460;24.060;2023-04-16T13:51:26;101215.69;;;11.78;25.68
61757;BME280;57225;61.460;24.060;2023-04-16T13:54:10;101212.06;;;12.21;26.80
61757;BME280;57225;61.460;24.060;2023-04-16T13:56:56;101214.09;;;12.24;25.89
61757;BME280;57225;61.460;24.060;2023-04-16T13:59:40;101217.03;;;11.57;26.87
61757;BME280;57225;61.460;24.060;2023-04-16T14:02:25;101214.50;;;11.45;25.83
61757;BME280;57225;61.460;24.060;2023-04-16T14:05:10;101215.44;;;11.56;26.39
61757;BME280;57225;61.460;24.060;2023-04-16T14:07:55;101209.34;;;11.10;25.86
61757;BME280;57225;61.460;24.060;2023-04-16T14:10:39;101206.00;;;11.31;27.29
61757;BME280;57225;61.460;24.060;2023-04-16T14:13:24;101212.41;;;11.32;26.45
61757;BME280;57225;61.460;24.060;2023-04-16T14:16:09;101208.72;;;11.24;26.99
61757;BME280;57225;61.460;24.060;2023-04-16T14:18:53;101206.50;;;11.07;27.07
61757;BME280;57225;61.460;24.060;2023-04-16T14:21:38;101215.06;;;10.91;27.17
61757;BME280;57225;61.460;24.060;2023-04-16T14:24:22;101209.88;;;11.23;28.54
61757;BME280;57225;61.460;24.060;2023-04-16T14:27:34;101203.69;;;11.07;27.14
61757;BME280;57225;61.460;24.060;2023-04-16T14:30:19;101204.31;;;11.23;27.11
61757;BME280;57225;61.460;24.060;2023-04-16T14:33:04;101188.44;;;11.31;27.03
61757;BME280;57225;61.460;24.060;2023-04-16T14:35:50;101202.25;;;11.16;26.92
61757;BME280;57225;61.460;24.060;2023-04-16T14:38:35;101210.44;;;11.36;27.21
61757;BME280;57225;61.460;24.060;2023-04-16T14:41:19;101198.91;;;11.74;27.81